Time;durP1;ratioP1;P1;durP2;ratioP2;P2;SDS_P1;SDS_P2;PMS_P1;PMS_P2;Temp;Humidity;BMP_temperature;BMP_pressure;BME280_temperature;BME280_humidity;BME280_pressure;Samples;Min_cycle;Max_cycle;Signal;HPM_P1;HPM_P2
2022/11/24 00:01:45;;;;;;;0.00;0.00;;;;;;;;;;5074223;28;20047;-85
2022/11/24 00:04:11;;;;;;;0.00;0.00;;;;;;;;;;5076918;28;20415;-86
2022/11/24 00:06:38;;;;;;;0.00;0.00;;;;;;;;;;5074292;28;20465;-86
2022/11/24 00:09:04;;;;;;;0.00;0.00;;;;;;;;;;5074134;28;20063;-82
2022/11/24 00:11:32;;;;;;;0.00;0.00;;;;;;;;;;5073188;28;20032;-86
2022/11/24 00:13:59;;;;;;;0.00;0.00;;;;;;;;;;5074149;28;20028;-87
2022/11/24 00:16:27;;;;;;;0.00;0.00;;;;;;;;;;5074085;28;20033;-85
2022/11/24 00:18:54;;;;;;;0.00;0.00;;;;;;;;;;5072508;28;20445;-85
2022/11/24 00:21:21;;;;;;;0.00;0.00;;;;;;;;;;5073749;28;20036;-84
2022/11/24 00:23:48;;;;;;;0.00;0.00;;;;;;;;;;5059712;28;20029;-86
2022/11/24 00:26:16;;;;;;;0.00;0.00;;;;;;;;;;5070930;28;20025;-86
2022/11/24 00:28:43;;;;;;;0.00;0.00;;;;;;;;;;5073349;28;20032;-84
2022/11/24 00:31:17;;;;;;;0.00;0.00;;;;;;;;;;5069696;28;20040;-85
2022/11/24 00:33:44;;;;;;;0.00;0.00;;;;;;;;;;5069854;28;20082;-84
2022/11/24 00:36:11;;;;;;;0.00;0.00;;;;;;;;;;5058248;28;20025;-83
2022/11/24 00:38:37;;;;;;;0.00;0.00;;;;;;;;;;5070928;28;20033;-85
2022/11/24 00:41:04;;;;;;;0.00;0.00;;;;;;;;;;5070013;28;20033;-85
2022/11/24 00:43:30;;;;;;;0.00;0.00;;;;;;;;;;5076067;28;20115;-85
2022/11/24 00:45:56;;;;;;;0.00;0.00;;;;;;;;;;5077065;28;20508;-86
2022/11/24 00:48:23;;;;;;;0.00;0.00;;;;;;;;;;5076142;28;20028;-85
2022/11/24 00:51:00;;;;;;;0.00;0.00;;;;;;;;;;5077051;28;20415;-86
2022/11/24 00:53:27;;;;;;;0.00;0.00;;;;;;;;;;5078097;28;20388;-85
2022/11/24 00:55:54;;;;;;;0.00;0.00;;;;;;;;;;5077597;28;20047;-85
2022/11/24 00:58:20;;;;;;;0.00;0.00;;;;;;;;;;5077676;28;20043;-85
2022/11/24 01:00:46;;;;;;;0.00;0.00;;;;;;;;;;5073976;28;20156;-86
2022/11/24 01:03:13;;;;;;;0.00;0.00;;;;;;;;;;5077359;28;20355;-84
2022/11/24 01:05:40;;;;;;;0.00;0.00;;;;;;;;;;5077479;28;20033;-85
2022/11/24 01:08:07;;;;;;;0.00;0.00;;;;;;;;;;5075561;28;20093;-85
2022/11/24 01:10:33;;;;;;;0.00;0.00;;;;;;;;;;5074944;28;20063;-86
2022/11/24 01:13:00;;;;;;;0.00;0.00;;;;;;;;;;5075259;28;20033;-85
2022/11/24 01:15:28;;;;;;;0.00;0.00;;;;;;;;;;5075847;28;20024;-88
2022/11/24 01:17:56;;;;;;;0.00;0.00;;;;;;;;;;5075438;28;20343;-85
2022/11/24 01:20:22;;;;;;;0.00;0.00;;;;;;;;;;5075301;28;20033;-88
2022/11/24 01:22:49;;;;;;;0.00;0.00;;;;;;;;;;5075467;28;20075;-87
2022/11/24 01:25:15;;;;;;;0.00;0.00;;;;;;;;;;5074786;28;20112;-87
2022/11/24 01:27:43;;;;;;;0.00;0.00;;;;;;;;;;5075765;28;20029;-85
2022/11/24 01:30:10;;;;;;;0.00;0.00;;;;;;;;;;5082276;28;20412;-86
2022/11/24 01:32:37;;;;;;;0.00;0.00;;;;;;;;;;5075578;28;20029;-86
2022/11/24 01:35:04;;;;;;;0.00;0.00;;;;;;;;;;5050939;28;20306;-86
2022/11/24 01:37:30;;;;;;;0.00;0.00;;;;;;;;;;5073302;28;20077;-86
2022/11/24 01:39:57;;;;;;;0.00;0.00;;;;;;;;;;5076792;28;20036;-87
2022/11/24 01:42:23;;;;;;;0.00;0.00;;;;;;;;;;5075151;28;20021;-86
2022/11/24 01:45:10;;;;;;;0.00;0.00;;;;;;;;;;5076800;28;20472;-87
2022/11/24 01:47:39;;;;;;;0.00;0.00;;;;;;;;;;5059040;28;20374;-85
2022/11/24 01:50:10;;;;;;;0.00;0.00;;;;;;;;;;5057817;28;20388;-85
2022/11/24 01:52:39;;;;;;;0.00;0.00;;;;;;;;;;5075799;28;20086;-87
2022/11/24 01:55:10;;;;;;;0.00;0.00;;;;;;;;;;5072764;28;20024;-85
2022/11/24 01:57:41;;;;;;;0.00;0.00;;;;;;;;;;5072686;28;20488;-87
2022/11/24 02:00:10;;;;;;;0.00;0.00;;;;;;;;;;5076933;28;20035;-85
2022/11/24 02:02:36;;;;;;;0.00;0.00;;;;;;;;;;5073019;28;20369;-81
2022/11/24 02:05:05;;;;;;;0.00;0.00;;;;;;;;;;5074520;28;20068;-86
2022/11/24 02:07:32;;;;;;;0.00;0.00;;;;;;;;;;5075449;28;20033;-87
2022/11/24 02:10:18;;;;;;;0.00;0.00;;;;;;;;;;5069730;28;20036;-86
2022/11/24 02:12:46;;;;;;;0.00;0.00;;;;;;;;;;5079823;28;20030;-86
2022/11/24 02:15:16;;;;;;;0.00;0.00;;;;;;;;;;5060279;28;20029;-87
2022/11/24 02:17:43;;;;;;;0.00;0.00;;;;;;;;;;5076359;28;20033;-87
2022/11/24 02:20:10;;;;;;;0.00;0.00;;;;;;;;;;5072094;28;20033;-84
2022/11/24 02:22:53;;;;;;;0.00;0.00;;;;;;;;;;5076982;28;20345;-83
2022/11/24 02:25:35;;;;;;;0.00;0.00;;;;;;;;;;5075857;28;20035;-80
2022/11/24 02:28:04;;;;;;;0.00;0.00;;;;;;;;;;5073056;28;20111;-87
2022/11/24 02:30:30;;;;;;;0.00;0.00;;;;;;;;;;5064812;28;20051;-86
2022/11/24 02:32:57;;;;;;;0.00;0.00;;;;;;;;;;5065478;28;20407;-86
2022/11/24 02:35:25;;;;;;;0.00;0.00;;;;;;;;;;5061891;28;20024;-85
2022/11/24 02:37:52;;;;;;;0.00;0.00;;;;;;;;;;5061864;28;20101;-86
2022/11/24 02:40:23;;;;;;;0.00;0.00;;;;;;;;;;5045903;28;20024;-84
2022/11/24 02:42:51;;;;;;;0.00;0.00;;;;;;;;;;5065973;28;20016;-85
2022/11/24 02:45:17;;;;;;;0.00;0.00;;;;;;;;;;5064640;28;20524;-87
2022/11/24 02:47:44;;;;;;;0.00;0.00;;;;;;;;;;5062406;28;20118;-87
2022/11/24 02:50:11;;;;;;;0.00;0.00;;;;;;;;;;5069474;28;20480;-86
2022/11/24 02:52:37;;;;;;;0.00;0.00;;;;;;;;;;5046860;28;20020;-85
2022/11/24 02:55:04;;;;;;;0.00;0.00;;;;;;;;;;5050600;28;20555;-87
2022/11/24 02:57:30;;;;;;;0.00;0.00;;;;;;;;;;5063902;28;20056;-87
2022/11/24 02:59:57;;;;;;;0.00;0.00;;;;;;;;;;5066070;28;20027;-85
2022/11/24 03:02:23;;;;;;;0.00;0.00;;;;;;;;;;5046009;28;20025;-84
2022/11/24 03:04:50;;;;;;;0.00;0.00;;;;;;;;;;5062079;28;20044;-85
2022/11/24 03:07:16;;;;;;;0.00;0.00;;;;;;;;;;5065105;28;20032;-88
2022/11/24 03:09:43;;;;;;;0.00;0.00;;;;;;;;;;5052559;28;20114;-86
2022/11/24 03:12:09;;;;;;;0.00;0.00;;;;;;;;;;5064276;28;20020;-88
2022/11/24 03:14:36;;;;;;;0.00;0.00;;;;;;;;;;5044525;28;20033;-83
2022/11/24 03:17:03;;;;;;;0.00;0.00;;;;;;;;;;5071309;28;20028;-87
2022/11/24 03:19:29;;;;;;;0.00;0.00;;;;;;;;;;5066989;28;20140;-86
2022/11/24 03:21:55;;;;;;;0.00;0.00;;;;;;;;;;5061225;28;20032;-86
2022/11/24 03:24:22;;;;;;;0.00;0.00;;;;;;;;;;5062891;28;20102;-87
2022/11/24 03:26:48;;;;;;;0.00;0.00;;;;;;;;;;5063601;28;20083;-84
2022/11/24 03:29:15;;;;;;;0.00;0.00;;;;;;;;;;5041332;28;20048;-85
2022/11/24 03:31:42;;;;;;;0.00;0.00;;;;;;;;;;5061072;28;20051;-88
2022/11/24 03:34:08;;;;;;;0.00;0.00;;;;;;;;;;5046036;28;20021;-82
2022/11/24 03:36:35;;;;;;;0.00;0.00;;;;;;;;;;5064175;28;20036;-87
2022/11/24 03:39:01;;;;;;;0.00;0.00;;;;;;;;;;5062233;28;20036;-86
2022/11/24 03:41:27;;;;;;;0.00;0.00;;;;;;;;;;5062882;28;20875;-82
2022/11/24 03:43:54;;;;;;;0.00;0.00;;;;;;;;;;5067306;28;20024;-87
2022/11/24 03:46:20;;;;;;;0.00;0.00;;;;;;;;;;5041234;28;20429;-84
2022/11/24 03:48:47;;;;;;;0.00;0.00;;;;;;;;;;5045120;28;20055;-86
2022/11/24 03:51:14;;;;;;;0.00;0.00;;;;;;;;;;5061927;28;20051;-86
2022/11/24 03:53:40;;;;;;;0.00;0.00;;;;;;;;;;5063330;28;20029;-84
2022/11/24 03:56:07;;;;;;;0.00;0.00;;;;;;;;;;5067732;28;20047;-85
2022/11/24 03:58:33;;;;;;;0.00;0.00;;;;;;;;;;5061897;28;20035;-84
2022/11/24 04:01:00;;;;;;;0.00;0.00;;;;;;;;;;5046827;28;20021;-83
2022/11/24 04:03:26;;;;;;;0.00;0.00;;;;;;;;;;5067257;28;20044;-87
2022/11/24 04:05:53;;;;;;;0.00;0.00;;;;;;;;;;5061494;28;20091;-86
2022/11/24 04:08:19;;;;;;;0.00;0.00;;;;;;;;;;5065297;28;20028;-86
2022/11/24 04:10:49;;;;;;;0.00;0.00;;;;;;;;;;5061405;28;20098;-87
2022/11/24 04:13:16;;;;;;;0.00;0.00;;;;;;;;;;5035961;28;20124;-86
2022/11/24 04:15:43;;;;;;;0.00;0.00;;;;;;;;;;5046284;28;20052;-88
2022/11/24 04:18:09;;;;;;;0.00;0.00;;;;;;;;;;5060527;28;20028;-84
2022/11/24 04:20:36;;;;;;;0.00;0.00;;;;;;;;;;5059423;28;20143;-82
2022/11/24 04:23:02;;;;;;;0.00;0.00;;;;;;;;;;5063089;28;20025;-85
2022/11/24 04:25:29;;;;;;;0.00;0.00;;;;;;;;;;5045211;28;20028;-89
2022/11/24 04:27:55;;;;;;;0.00;0.00;;;;;;;;;;5060003;28;20032;-88
2022/11/24 04:30:22;;;;;;;0.00;0.00;;;;;;;;;;5072822;28;20150;-88
2022/11/24 04:32:49;;;;;;;0.00;0.00;;;;;;;;;;5062335;28;20045;-88
2022/11/24 04:35:16;;;;;;;0.00;0.00;;;;;;;;;;5056069;28;20029;-87
2022/11/24 04:37:42;;;;;;;0.00;0.00;;;;;;;;;;5063125;28;20029;-88
2022/11/24 04:40:09;;;;;;;0.00;0.00;;;;;;;;;;5068713;28;20059;-89
2022/11/24 04:42:36;;;;;;;0.00;0.00;;;;;;;;;;5067255;28;20048;-86
2022/11/24 04:45:02;;;;;;;0.00;0.00;;;;;;;;;;5058267;28;20532;-86
2022/11/24 04:47:28;;;;;;;0.00;0.00;;;;;;;;;;5060167;28;20053;-86
2022/11/24 04:49:55;;;;;;;0.00;0.00;;;;;;;;;;5039659;28;20051;-87
2022/11/24 04:52:22;;;;;;;0.00;0.00;;;;;;;;;;5058158;28;20021;-85
2022/11/24 04:54:48;;;;;;;0.00;0.00;;;;;;;;;;5058681;28;20094;-85
2022/11/24 04:57:16;;;;;;;0.00;0.00;;;;;;;;;;5063482;28;20097;-86
2022/11/24 04:59:42;;;;;;;0.00;0.00;;;;;;;;;;5063862;28;20016;-85
2022/11/24 05:02:09;;;;;;;0.00;0.00;;;;;;;;;;5061079;28;20389;-86
2022/11/24 05:04:35;;;;;;;0.00;0.00;;;;;;;;;;5061552;28;20035;-85
2022/11/24 05:07:02;;;;;;;0.00;0.00;;;;;;;;;;5041877;28;20029;-82
2022/11/24 05:09:28;;;;;;;0.00;0.00;;;;;;;;;;5059718;28;20423;-81
2022/11/24 05:11:54;;;;;;;0.00;0.00;;;;;;;;;;5061757;28;20033;-85
2022/11/24 05:14:20;;;;;;;0.00;0.00;;;;;;;;;;5060208;28;20634;-86
2022/11/24 05:16:47;;;;;;;0.00;0.00;;;;;;;;;;5062705;28;20016;-85
2022/11/24 05:19:14;;;;;;;0.00;0.00;;;;;;;;;;5064091;28;20036;-86
2022/11/24 05:21:40;;;;;;;0.00;0.00;;;;;;;;;;5061810;28;20060;-84
2022/11/24 05:24:07;;;;;;;0.00;0.00;;;;;;;;;;5060457;28;20068;-81
2022/11/24 05:26:34;;;;;;;0.00;0.00;;;;;;;;;;5060290;28;20313;-86
2022/11/24 05:29:00;;;;;;;0.00;0.00;;;;;;;;;;5065032;28;20526;-85
2022/11/24 05:31:27;;;;;;;0.00;0.00;;;;;;;;;;5065686;28;20078;-86
2022/11/24 05:33:53;;;;;;;0.00;0.00;;;;;;;;;;5066501;28;20048;-85
2022/11/24 05:39:04;;;;;;;0.00;0.00;;;;;;;;;;5062286;28;20171;-86
2022/11/24 05:41:30;;;;;;;0.00;0.00;;;;;;;;;;5067029;28;20057;-84
2022/11/24 05:43:57;;;;;;;0.00;0.00;;;;;;;;;;5054618;28;20037;-86
2022/11/24 05:46:23;;;;;;;0.00;0.00;;;;;;;;;;5061143;28;20025;-86
2022/11/24 05:48:49;;;;;;;0.00;0.00;;;;;;;;;;5064012;28;20033;-86
2022/11/24 05:51:16;;;;;;;0.00;0.00;;;;;;;;;;5058390;28;20040;-84
2022/11/24 05:53:42;;;;;;;0.00;0.00;;;;;;;;;;5064872;28;20029;-81
2022/11/24 05:56:08;;;;;;;0.00;0.00;;;;;;;;;;5063868;28;20103;-87
2022/11/24 05:58:35;;;;;;;0.00;0.00;;;;;;;;;;5060084;28;20036;-80
2022/11/24 06:01:04;;;;;;;0.00;0.00;;;;;;;;;;5063390;28;20109;-84
2022/11/24 06:03:31;;;;;;;0.00;0.00;;;;;;;;;;5063758;28;20109;-84
2022/11/24 06:05:57;;;;;;;0.00;0.00;;;;;;;;;;5062415;28;20085;-80
2022/11/24 06:08:23;;;;;;;0.00;0.00;;;;;;;;;;5059803;28;20033;-83
2022/11/24 06:10:50;;;;;;;0.00;0.00;;;;;;;;;;5062047;28;20028;-84
2022/11/24 06:13:16;;;;;;;0.00;0.00;;;;;;;;;;5064236;28;20021;-80
2022/11/24 06:15:42;;;;;;;0.00;0.00;;;;;;;;;;5062037;28;20031;-86
2022/11/24 06:18:09;;;;;;;0.00;0.00;;;;;;;;;;5059268;28;21034;-84
2022/11/24 06:20:35;;;;;;;0.75;0.00;;;;;;;;;;5059247;28;20068;-80
2022/11/24 06:23:01;;;;;;;0.00;0.00;;;;;;;;;;5060371;28;20425;-84
2022/11/24 06:25:28;;;;;;;0.00;0.00;;;;;;;;;;5060990;28;20295;-89
2022/11/24 06:27:55;;;;;;;0.00;0.00;;;;;;;;;;5060152;28;20369;-84
2022/11/24 06:30:21;;;;;;;0.00;0.00;;;;;;;;;;5061740;28;20072;-84
2022/11/24 06:32:47;;;;;;;0.00;0.00;;;;;;;;;;5060592;28;20460;-84
2022/11/24 06:35:14;;;;;;;0.00;0.00;;;;;;;;;;5057403;28;20107;-84
2022/11/24 06:37:40;;;;;;;0.00;0.00;;;;;;;;;;5057824;28;20151;-81
2022/11/24 06:40:10;;;;;;;0.00;0.00;;;;;;;;;;5059499;28;20082;-85
2022/11/24 06:42:37;;;;;;;0.00;0.00;;;;;;;;;;5057576;28;20382;-82
2022/11/24 06:45:03;;;;;;;0.00;0.00;;;;;;;;;;5072072;28;20067;-84
2022/11/24 06:47:29;;;;;;;0.00;0.00;;;;;;;;;;5054071;28;20351;-86
2022/11/24 06:49:56;;;;;;;0.00;0.00;;;;;;;;;;5058352;28;20448;-85
2022/11/24 06:52:23;;;;;;;0.00;0.00;;;;;;;;;;5059109;28;20473;-81
2022/11/24 06:54:49;;;;;;;0.00;0.00;;;;;;;;;;5060911;28;20041;-84
2022/11/24 06:57:15;;;;;;;0.00;0.00;;;;;;;;;;5063705;28;20354;-82
2022/11/24 06:59:42;;;;;;;0.00;0.00;;;;;;;;;;5061510;28;20029;-84
2022/11/24 07:02:09;;;;;;;0.00;0.00;;;;;;;;;;5059317;28;20063;-83
2022/11/24 07:04:35;;;;;;;0.00;0.00;;;;;;;;;;5059383;28;20424;-83
2022/11/24 07:07:02;;;;;;;0.00;0.00;;;;;;;;;;5063081;28;20020;-85
2022/11/24 07:09:28;;;;;;;0.00;0.00;;;;;;;;;;5055484;28;20032;-83
2022/11/24 07:11:55;;;;;;;0.00;0.00;;;;;;;;;;5068293;28;20035;-85
2022/11/24 07:14:22;;;;;;;0.00;0.00;;;;;;;;;;5064736;28;20436;-82
2022/11/24 07:16:48;;;;;;;0.00;0.00;;;;;;;;;;5064188;28;20035;-83
2022/11/24 07:19:14;;;;;;;0.00;0.00;;;;;;;;;;5061576;28;20617;-83
2022/11/24 07:21:41;;;;;;;0.00;0.00;;;;;;;;;;5062239;28;20066;-83
2022/11/24 07:24:07;;;;;;;0.00;0.00;;;;;;;;;;5061044;28;20104;-82
2022/11/24 07:26:36;;;;;;;0.00;0.00;;;;;;;;;;5062620;28;20035;-83
2022/11/24 07:29:03;;;;;;;0.00;0.00;;;;;;;;;;5056664;28;20477;-83
2022/11/24 07:31:30;;;;;;;0.00;0.00;;;;;;;;;;5056036;28;20058;-84
2022/11/24 07:33:56;;;;;;;0.00;0.00;;;;;;;;;;5062581;28;20100;-84
2022/11/24 07:36:23;;;;;;;0.00;0.00;;;;;;;;;;5061648;28;20120;-83
2022/11/24 07:38:50;;;;;;;0.00;0.00;;;;;;;;;;5058671;28;20476;-83
2022/11/24 07:41:18;;;;;;;0.00;0.00;;;;;;;;;;5059595;28;20048;-82
2022/11/24 07:43:44;;;;;;;0.00;0.00;;;;;;;;;;5056139;28;20021;-80
2022/11/24 07:46:12;;;;;;;0.00;0.00;;;;;;;;;;5058464;28;20033;-83
2022/11/24 07:48:39;;;;;;;0.00;0.00;;;;;;;;;;5046190;28;20465;-80
2022/11/24 07:51:06;;;;;;;0.00;0.00;;;;;;;;;;5045855;28;20362;-83
2022/11/24 07:53:32;;;;;;;0.00;0.00;;;;;;;;;;5056835;28;20044;-83
2022/11/24 07:56:00;;;;;;;0.00;0.00;;;;;;;;;;5054579;28;20036;-83
2022/11/24 07:58:28;;;;;;;0.00;0.00;;;;;;;;;;5058917;28;21486;-78
2022/11/24 08:00:54;;;;;;;0.00;0.00;;;;;;;;;;5058957;28;20032;-81
2022/11/24 08:03:20;;;;;;;0.00;0.00;;;;;;;;;;5058103;28;20025;-80
2022/11/24 08:05:57;;;;;;;0.00;0.00;;;;;;;;;;5064721;28;20033;-81
2022/11/24 08:08:23;;;;;;;0.00;0.00;;;;;;;;;;5064334;28;20036;-84
2022/11/24 08:10:50;;;;;;;0.00;0.00;;;;;;;;;;5058983;28;20028;-81
2022/11/24 08:13:16;;;;;;;0.00;0.00;;;;;;;;;;5061147;28;20028;-81
2022/11/24 08:15:43;;;;;;;0.00;0.00;;;;;;;;;;5059567;28;20059;-80
2022/11/24 08:18:10;;;;;;;0.00;0.00;;;;;;;;;;5061197;28;20535;-84
2022/11/24 08:20:36;;;;;;;0.00;0.00;;;;;;;;;;5057058;28;20032;-81
2022/11/24 08:23:03;;;;;;;0.00;0.00;;;;;;;;;;5054810;28;20107;-80
2022/11/24 08:25:33;;;;;;;0.00;0.00;;;;;;;;;;5057452;28;20107;-80
2022/11/24 08:28:03;;;;;;;0.00;0.00;;;;;;;;;;5059599;28;20035;-79
2022/11/24 08:30:54;;;;;;;0.00;0.00;;;;;;;;;;5057240;28;20037;-80
2022/11/24 08:33:20;;;;;;;0.00;0.00;;;;;;;;;;5061142;28;20395;-81
2022/11/24 08:35:46;;;;;;;0.00;0.00;;;;;;;;;;5057756;28;21244;-79
2022/11/24 08:38:13;;;;;;;0.00;0.00;;;;;;;;;;5054497;28;20082;-81
2022/11/24 08:40:39;;;;;;;0.00;0.00;;;;;;;;;;5053555;28;20035;-80
2022/11/24 08:43:05;;;;;;;0.00;0.00;;;;;;;;;;5062813;28;20035;-80
2022/11/24 08:45:32;;;;;;;0.00;0.00;;;;;;;;;;5061527;28;20025;-80
2022/11/24 08:47:58;;;;;;;0.00;0.00;;;;;;;;;;5061889;28;20021;-80
2022/11/24 08:50:25;;;;;;;0.00;0.00;;;;;;;;;;5045392;28;20033;-79
2022/11/24 08:52:52;;;;;;;0.00;0.00;;;;;;;;;;5063276;28;20036;-80
2022/11/24 08:55:19;;;;;;;0.00;0.00;;;;;;;;;;5063191;28;20029;-82
2022/11/24 08:57:45;;;;;;;0.00;0.00;;;;;;;;;;5065564;28;20129;-81
2022/11/24 09:00:12;;;;;;;0.00;0.00;;;;;;;;;;5063189;28;20017;-80
2022/11/24 09:02:39;;;;;;;0.00;0.00;;;;;;;;;;5062196;28;20031;-80
2022/11/24 09:05:05;;;;;;;0.00;0.00;;;;;;;;;;5066441;28;20398;-81
2022/11/24 09:07:31;;;;;;;0.00;0.00;;;;;;;;;;5069329;28;20027;-80
2022/11/24 09:10:50;;;;;;;0.00;0.00;;;;;;;;;;5099026;27;20430;-74
2022/11/24 09:13:17;;;;;;;0.00;0.00;;;;;;;;;;5075972;28;20062;-76
2022/11/24 09:15:44;;;;;;;0.00;0.00;;;;;;;;;;5056606;28;20056;-75
2022/11/24 09:18:10;;;;;;;0.00;0.00;;;;;;;;;;5058208;28;20114;-75
2022/11/24 09:20:36;;;;;;;0.00;0.00;;;;;;;;;;5055590;28;20155;-75
2022/11/24 09:23:03;;;;;;;0.00;0.00;;;;;;;;;;5054581;28;20112;-75
2022/11/24 09:25:29;;;;;;;0.00;0.00;;;;;;;;;;5055868;28;20429;-74
2022/11/24 09:27:56;;;;;;;0.00;0.00;;;;;;;;;;5069936;28;20494;-74
2022/11/24 09:30:22;;;;;;;0.00;0.00;;;;;;;;;;5054124;28;20409;-74
2022/11/24 09:32:48;;;;;;;0.00;0.00;;;;;;;;;;5071527;28;20078;-75
2022/11/24 09:35:15;;;;;;;0.00;0.00;;;;;;;;;;5057528;28;20390;-77
2022/11/24 09:37:43;;;;;;;0.00;0.00;;;;;;;;;;5058228;28;20294;-77
2022/11/24 09:40:13;;;;;;;0.00;0.00;;;;;;;;;;5055267;28;20024;-75
2022/11/24 09:42:42;;;;;;;0.00;0.00;;;;;;;;;;5057575;28;20029;-76
2022/11/24 09:45:14;;;;;;;0.00;0.00;;;;;;;;;;5074530;28;20029;-74
2022/11/24 09:47:44;;;;;;;0.00;0.00;;;;;;;;;;5059099;28;20033;-75
2022/11/24 09:50:24;;;;;;;0.00;0.00;;;;;;;;;;5055613;28;20029;-76
2022/11/24 09:52:58;;;;;;;0.00;0.00;;;;;;;;;;5052750;28;20021;-75
2022/11/24 09:55:42;;;;;;;0.00;0.00;;;;;;;;;;5074527;28;20039;-75
2022/11/24 09:58:27;;;;;;;0.00;0.00;;;;;;;;;;5060153;28;20048;-76
2022/11/24 10:00:54;;;;;;;0.00;0.00;;;;;;;;;;5057558;28;20112;-75
2022/11/24 10:06:40;;;;;;;0.00;0.00;;;;;;;;;;5072816;28;20131;-78
2022/11/24 10:10:37;;;;;;;0.00;0.00;;;;;;;;;;5101651;27;20361;-76
2022/11/24 10:13:17;;;;;;;0.00;0.00;;;;;;;;;;5091007;28;20508;-76
2022/11/24 10:15:43;;;;;;;0.00;0.00;;;;;;;;;;5094359;28;20039;-76
2022/11/24 10:18:46;;;;;;;0.00;0.00;;;;;;;;;;5096100;28;20131;-76
2022/11/24 10:21:24;;;;;;;0.00;0.00;;;;;;;;;;5093151;28;20024;-81
2022/11/24 10:24:09;;;;;;;0.00;0.00;;;;;;;;;;5097329;28;20023;-79
2022/11/24 10:26:37;;;;;;;0.00;0.00;;;;;;;;;;5098843;28;20102;-76
2022/11/24 10:29:12;;;;;;;0.00;0.00;;;;;;;;;;5101226;28;20051;-82
2022/11/24 10:31:43;;;;;;;0.00;0.00;;;;;;;;;;5099056;28;20024;-84
2022/11/24 10:34:29;;;;;;;0.00;0.00;;;;;;;;;;5092764;28;20029;-79
2022/11/24 10:37:33;;;;;;;0.00;0.00;;;;;;;;;;5091102;28;20032;-80
2022/11/24 10:40:18;;;;;;;0.00;0.00;;;;;;;;;;5093179;28;20028;-77
2022/11/24 10:42:59;;;;;;;0.00;0.00;;;;;;;;;;5103478;28;20585;-80
2022/11/24 10:45:26;;;;;;;0.00;0.00;;;;;;;;;;5094918;28;20029;-80
2022/11/24 10:47:55;;;;;;;0.00;0.00;;;;;;;;;;5097387;28;20028;-81
2022/11/24 10:50:23;;;;;;;0.00;0.00;;;;;;;;;;5095578;28;20034;-79
2022/11/24 10:56:00;;;;;;;0.00;0.00;;;;;;;;;;5092361;28;20704;-77
2022/11/24 10:58:28;;;;;;;0.00;0.00;;;;;;;;;;5091175;28;20032;-73
2022/11/24 11:01:24;;;;;;;0.00;0.00;;;;;;;;;;5091285;28;20016;-77
2022/11/24 11:04:24;;;;;;;0.00;0.00;;;;;;;;;;5092547;28;20538;-75
2022/11/24 11:10:18;;;;;;;0.00;0.00;;;;;;;;;;5049761;28;20052;-75
2022/11/24 11:12:55;;;;;;;0.00;0.00;;;;;;;;;;5097468;28;20028;-74
2022/11/24 11:15:21;;;;;;;0.00;0.00;;;;;;;;;;5103976;28;20030;-78
2022/11/24 11:17:51;;;;;;;0.00;0.00;;;;;;;;;;5093250;28;20031;-74
2022/11/24 11:20:35;;;;;;;0.00;0.00;;;;;;;;;;5081152;28;20044;-76
2022/11/24 11:23:14;;;;;;;0.00;0.00;;;;;;;;;;5082799;28;20054;-76
2022/11/24 11:25:42;;;;;;;0.00;0.00;;;;;;;;;;5086435;28;20028;-75
2022/11/24 11:28:23;;;;;;;0.00;0.00;;;;;;;;;;5083851;28;21050;-80
2022/11/24 11:30:58;;;;;;;0.00;0.00;;;;;;;;;;5077517;28;20021;-76
2022/11/24 11:33:31;;;;;;;0.00;0.00;;;;;;;;;;5080400;28;20027;-76
2022/11/24 11:36:00;;;;;;;0.00;0.00;;;;;;;;;;5088697;28;20043;-78
2022/11/24 11:38:32;;;;;;;0.00;0.00;;;;;;;;;;5079265;28;20040;-76
2022/11/24 11:40:58;;;;;;;0.00;0.00;;;;;;;;;;5080713;28;20024;-74
2022/11/24 11:43:26;;;;;;;0.00;0.00;;;;;;;;;;5082020;28;20025;-74
2022/11/24 11:46:58;;;;;;;0.00;0.00;;;;;;;;;;5086564;27;20355;-74
2022/11/24 11:49:24;;;;;;;0.00;0.00;;;;;;;;;;5100549;28;20031;-76
2022/11/24 11:51:56;;;;;;;0.00;0.00;;;;;;;;;;5085281;28;20024;-77
2022/11/24 11:54:22;;;;;;;0.00;0.00;;;;;;;;;;5084297;28;20017;-74
2022/11/24 11:56:50;;;;;;;0.00;0.00;;;;;;;;;;5083380;28;20028;-75
2022/11/24 12:01:05;;;;;;;0.00;0.00;;;;;;;;;;5040781;28;20416;-76
2022/11/24 12:03:42;;;;;;;0.00;0.00;;;;;;;;;;5027596;28;20026;-76
2022/11/24 12:06:38;;;;;;;0.00;0.00;;;;;;;;;;5023743;28;20034;-81
2022/11/24 12:09:23;;;;;;;0.00;0.00;;;;;;;;;;4953522;28;20043;-80
2022/11/24 12:11:52;;;;;;;0.00;0.00;;;;;;;;;;5030580;28;20025;-81
2022/11/24 12:14:24;;;;;;;0.00;0.00;;;;;;;;;;5022326;28;20044;-80
2022/11/24 12:17:02;;;;;;;0.00;0.00;;;;;;;;;;5027371;28;20022;-80
2022/11/24 12:19:50;;;;;;;0.00;0.00;;;;;;;;;;5029047;28;20034;-80
2022/11/24 12:22:22;;;;;;;0.00;0.00;;;;;;;;;;5027657;28;20029;-80
2022/11/24 12:24:49;;;;;;;0.00;0.00;;;;;;;;;;5032014;28;20052;-80
2022/11/24 12:27:34;;;;;;;0.00;0.00;;;;;;;;;;5030649;28;20125;-80
2022/11/24 12:30:12;;;;;;;0.00;0.00;;;;;;;;;;5026339;28;20029;-80
2022/11/24 12:32:42;;;;;;;0.00;0.00;;;;;;;;;;5020416;28;20026;-80
2022/11/24 12:35:23;;;;;;;0.00;0.00;;;;;;;;;;5017367;28;20487;-80
2022/11/24 12:38:01;;;;;;;0.00;0.00;;;;;;;;;;5025548;28;20030;-80
2022/11/24 12:40:45;;;;;;;0.00;0.00;;;;;;;;;;5037567;28;20034;-81
2022/11/24 12:43:26;;;;;;;0.00;0.00;;;;;;;;;;5032467;28;20044;-81
2022/11/24 12:46:01;;;;;;;0.00;0.00;;;;;;;;;;5016402;28;20026;-81
2022/11/24 12:48:32;;;;;;;0.00;0.00;;;;;;;;;;5021165;28;20511;-82
2022/11/24 12:51:01;;;;;;;0.00;0.00;;;;;;;;;;5027543;28;20038;-83
2022/11/24 12:53:34;;;;;;;0.00;0.00;;;;;;;;;;5034701;28;20030;-81
2022/11/24 12:56:12;;;;;;;0.00;0.00;;;;;;;;;;5016852;28;20034;-82
2022/11/24 12:58:58;;;;;;;0.00;0.00;;;;;;;;;;5019360;28;20026;-80
2022/11/24 13:01:30;;;;;;;0.00;0.00;;;;;;;;;;5040903;28;20111;-80
2022/11/24 13:04:04;;;;;;;0.00;0.00;;;;;;;;;;5042182;28;20048;-82
2022/11/24 13:06:46;;;;;;;0.00;0.00;;;;;;;;;;5040914;28;20090;-81
2022/11/24 13:09:13;;;;;;;0.00;0.00;;;;;;;;;;5023211;28;20124;-81
2022/11/24 13:11:43;;;;;;;0.00;0.00;;;;;;;;;;5011925;28;20045;-81
2022/11/24 13:14:42;;;;;;;0.00;0.00;;;;;;;;;;5028062;28;20026;-81
2022/11/24 13:17:30;;;;;;;0.00;0.00;;;;;;;;;;4976439;28;20060;-80
2022/11/24 13:20:15;;;;;;;0.00;0.00;;;;;;;;;;5016227;28;20042;-80
2022/11/24 13:22:46;;;;;;;0.00;0.00;;;;;;;;;;5013947;28;20029;-80
2022/11/24 13:25:21;;;;;;;0.00;0.00;;;;;;;;;;5036457;28;20096;-80
2022/11/24 13:27:51;;;;;;;0.00;0.00;;;;;;;;;;5010999;28;20030;-81
2022/11/24 13:30:33;;;;;;;0.00;0.00;;;;;;;;;;5004178;28;20113;-80
2022/11/24 13:33:18;;;;;;;0.00;0.00;;;;;;;;;;4998962;28;20033;-82
2022/11/24 13:36:03;;;;;;;0.00;0.00;;;;;;;;;;5016281;28;20030;-81
2022/11/24 13:38:44;;;;;;;0.00;0.00;;;;;;;;;;5016364;28;20083;-81
2022/11/24 13:41:30;;;;;;;0.00;0.00;;;;;;;;;;5017531;28;20460;-81
2022/11/24 13:44:15;;;;;;;0.00;0.00;;;;;;;;;;5023871;28;20025;-81
2022/11/24 13:46:58;;;;;;;0.00;0.00;;;;;;;;;;4998714;28;20480;-81
2022/11/24 13:49:36;;;;;;;0.00;0.00;;;;;;;;;;5016418;28;20040;-82
2022/11/24 13:52:21;;;;;;;0.00;0.00;;;;;;;;;;5008739;28;20036;-83
2022/11/24 13:54:47;;;;;;;0.00;0.00;;;;;;;;;;5008792;28;20026;-82
2022/11/24 13:57:43;;;;;;;0.00;0.00;;;;;;;;;;5021211;28;20067;-83
2022/11/24 14:00:20;;;;;;;0.00;0.00;;;;;;;;;;4993647;28;20060;-82
2022/11/24 14:02:46;;;;;;;0.00;0.00;;;;;;;;;;5007590;28;20559;-82
2022/11/24 14:05:14;;;;;;;0.00;0.00;;;;;;;;;;4997552;28;20693;-81
2022/11/24 14:07:41;;;;;;;0.00;0.00;;;;;;;;;;5005637;28;20020;-81
2022/11/24 14:10:14;;;;;;;0.00;0.00;;;;;;;;;;4997042;28;20030;-81
2022/11/24 14:12:41;;;;;;;0.00;0.00;;;;;;;;;;4997334;28;20461;-81
2022/11/24 14:15:21;;;;;;;0.00;0.00;;;;;;;;;;4997490;28;20445;-81
2022/11/24 14:17:48;;;;;;;0.00;0.00;;;;;;;;;;5004471;28;20124;-81
2022/11/24 14:20:24;;;;;;;0.00;0.00;;;;;;;;;;5012498;28;20084;-82
2022/11/24 14:22:51;;;;;;;0.00;0.00;;;;;;;;;;5008553;28;20022;-80
2022/11/24 14:25:30;;;;;;;0.00;0.00;;;;;;;;;;5028003;28;20074;-80
2022/11/24 14:27:57;;;;;;;0.00;0.00;;;;;;;;;;5025042;28;20118;-80
2022/11/24 14:30:53;;;;;;;0.00;0.00;;;;;;;;;;5016666;28;20570;-80
2022/11/24 14:33:19;;;;;;;0.00;0.00;;;;;;;;;;5005623;28;20037;-80
2022/11/24 14:35:47;;;;;;;0.00;0.00;;;;;;;;;;5006171;28;20376;-80
2022/11/24 14:38:14;;;;;;;0.00;0.00;;;;;;;;;;4994126;28;20030;-81
2022/11/24 14:40:46;;;;;;;0.00;0.00;;;;;;;;;;4995041;28;20069;-81
2022/11/24 14:43:18;;;;;;;0.00;0.00;;;;;;;;;;5011095;28;20026;-81
2022/11/24 14:45:49;;;;;;;0.00;0.00;;;;;;;;;;5015290;28;20034;-82
2022/11/24 14:48:16;;;;;;;0.00;0.00;;;;;;;;;;5017409;28;20026;-80
2022/11/24 14:50:43;;;;;;;0.00;0.00;;;;;;;;;;4996463;28;20026;-81
2022/11/24 14:53:14;;;;;;;0.00;0.00;;;;;;;;;;5000969;28;20029;-81
2022/11/24 14:55:41;;;;;;;0.00;0.00;;;;;;;;;;4993945;28;20544;-81
2022/11/24 14:58:26;;;;;;;0.00;0.00;;;;;;;;;;4997212;28;20358;-81
2022/11/24 15:01:18;;;;;;;0.00;0.00;;;;;;;;;;5032338;28;20125;-81
2022/11/24 15:03:44;;;;;;;0.00;0.00;;;;;;;;;;5016810;28;20026;-81
2022/11/24 15:06:18;;;;;;;0.00;0.00;;;;;;;;;;5034438;28;20025;-81
2022/11/24 15:08:46;;;;;;;0.00;0.00;;;;;;;;;;5012112;28;20034;-80
2022/11/24 15:11:13;;;;;;;0.00;0.00;;;;;;;;;;5013915;28;20469;-80
2022/11/24 15:13:40;;;;;;;0.00;0.00;;;;;;;;;;4996866;28;20025;-80
2022/11/24 15:16:08;;;;;;;0.00;0.00;;;;;;;;;;5014268;28;20026;-80
2022/11/24 15:18:35;;;;;;;0.00;0.00;;;;;;;;;;5016814;28;20029;-80